sensor_id;sensor_type;location;lat;lon;timestamp;temperature;humidity
7028;DHT22;3555;53.248;10.336;2024-03-08T00:00:17;2.40;99.90
7028;DHT22;3555;53.248;10.336;2024-03-08T00:02:45;2.40;99.90
7028;DHT22;3555;53.248;10.336;2024-03-08T00:05:13;2.40;99.90
7028;DHT22;3555;53.248;10.336;2024-03-08T00:07:41;2.30;99.90
7028;DHT22;3555;53.248;10.336;2024-03-08T00:10:10;2.40;99.90
7028;DHT22;3555;53.248;10.336;2024-03-08T00:12:39;2.50;99.90
7028;DHT22;3555;53.248;10.336;2024-03-08T00:15:08;2.50;99.90
7028;DHT22;3555;53.248;10.336;2024-03-08T00:17:35;2.50;99.90
7028;DHT22;3555;53.248;10.336;2024-03-08T00:20:02;2.50;99.90
7028;DHT22;3555;53.248;10.336;2024-03-08T00:22:33;2.50;99.90
7028;DHT22;3555;53.248;10.336;2024-03-08T00:25:01;2.30;99.90
7028;DHT22;3555;53.248;10.336;2024-03-08T00:27:28;2.30;99.90
7028;DHT22;3555;53.248;10.336;2024-03-08T00:29:57;2.20;99.90
7028;DHT22;3555;53.248;10.336;2024-03-08T00:32:24;2.10;99.90
7028;DHT22;3555;53.248;10.336;2024-03-08T00:34:51;2.00;99.90
7028;DHT22;3555;53.248;10.336;2024-03-08T00:37:18;2.00;99.90
7028;DHT22;3555;53.248;10.336;2024-03-08T00:39:45;2.00;99.90
7028;DHT22;3555;53.248;10.336;2024-03-08T00:42:12;2.00;99.90
7028;DHT22;3555;53.248;10.336;2024-03-08T00:44:39;2.00;99.90
7028;DHT22;3555;53.248;10.336;2024-03-08T00:47:07;2.20;99.90
7028;DHT22;3555;53.248;10.336;2024-03-08T00:49:35;2.10;99.90
7028;DHT22;3555;53.248;10.336;2024-03-08T00:52:02;2.00;99.90
7028;DHT22;3555;53.248;10.336;2024-03-08T00:54:29;2.00;99.90
7028;DHT22;3555;53.248;10.336;2024-03-08T00:56:56;2.00;99.90
7028;DHT22;3555;53.248;10.336;2024-03-08T00:59:22;1.80;99.90
7028;DHT22;3555;53.248;10.336;2024-03-08T01:01:49;1.80;99.90
7028;DHT22;3555;53.248;10.336;2024-03-08T01:04:17;1.80;99.90
7028;DHT22;3555;53.248;10.336;2024-03-08T01:06:45;1.70;99.90
7028;DHT22;3555;53.248;10.336;2024-03-08T01:09:13;1.50;99.90
7028;DHT22;3555;53.248;10.336;2024-03-08T01:11:40;1.40;99.90
7028;DHT22;3555;53.248;10.336;2024-03-08T01:14:07;1.40;99.90
7028;DHT22;3555;53.248;10.336;2024-03-08T01:16:34;1.50;99.90
7028;DHT22;3555;53.248;10.336;2024-03-08T01:19:01;1.70;99.90
7028;DHT22;3555;53.248;10.336;2024-03-08T01:21:30;1.70;99.90
7028;DHT22;3555;53.248;10.336;2024-03-08T01:23:57;1.50;99.90
7028;DHT22;3555;53.248;10.336;2024-03-08T01:26:24;1.60;99.90
7028;DHT22;3555;53.248;10.336;2024-03-08T01:28:50;1.40;99.90
7028;DHT22;3555;53.248;10.336;2024-03-08T01:31:17;1.40;99.90
7028;DHT22;3555;53.248;10.336;2024-03-08T01:33:44;1.50;99.90
7028;DHT22;3555;53.248;10.336;2024-03-08T01:36:11;1.50;99.90
7028;DHT22;3555;53.248;10.336;2024-03-08T01:38:42;1.50;99.90
7028;DHT22;3555;53.248;10.336;2024-03-08T01:41:09;1.50;99.90
7028;DHT22;3555;53.248;10.336;2024-03-08T01:43:35;1.60;99.90
7028;DHT22;3555;53.248;10.336;2024-03-08T01:46:03;1.50;99.90
7028;DHT22;3555;53.248;10.336;2024-03-08T01:48:30;1.50;99.90
7028;DHT22;3555;53.248;10.336;2024-03-08T01:50:57;1.70;99.90
7028;DHT22;3555;53.248;10.336;2024-03-08T01:53:26;1.70;99.90
7028;DHT22;3555;53.248;10.336;2024-03-08T01:55:57;1.80;99.90
7028;DHT22;3555;53.248;10.336;2024-03-08T01:58:24;1.80;99.90
7028;DHT22;3555;53.248;10.336;2024-03-08T02:00:54;1.70;99.90
7028;DHT22;3555;53.248;10.336;2024-03-08T02:03:21;1.50;99.90
7028;DHT22;3555;53.248;10.336;2024-03-08T02:05:49;1.60;99.90
7028;DHT22;3555;53.248;10.336;2024-03-08T02:08:17;1.60;99.90
7028;DHT22;3555;53.248;10.336;2024-03-08T02:10:44;1.60;99.90
7028;DHT22;3555;53.248;10.336;2024-03-08T02:13:13;1.60;99.90
7028;DHT22;3555;53.248;10.336;2024-03-08T02:15:53;1.70;99.90
7028;DHT22;3555;53.248;10.336;2024-03-08T02:18:20;1.80;99.90
7028;DHT22;3555;53.248;10.336;2024-03-08T02:20:49;1.90;99.90
7028;DHT22;3555;53.248;10.336;2024-03-08T02:23:16;2.00;99.90
7028;DHT22;3555;53.248;10.336;2024-03-08T02:25:43;1.90;99.90
7028;DHT22;3555;53.248;10.336;2024-03-08T02:28:11;2.00;99.90
7028;DHT22;3555;53.248;10.336;2024-03-08T02:30:38;2.10;99.90
7028;DHT22;3555;53.248;10.336;2024-03-08T02:33:06;2.20;99.90
7028;DHT22;3555;53.248;10.336;2024-03-08T02:35:33;2.30;99.90
7028;DHT22;3555;53.248;10.336;2024-03-08T02:38:01;2.40;99.90
7028;DHT22;3555;53.248;10.336;2024-03-08T02:40:29;2.40;99.90
7028;DHT22;3555;53.248;10.336;2024-03-08T02:42:56;2.50;99.90
7028;DHT22;3555;53.248;10.336;2024-03-08T02:45:23;2.60;99.90
7028;DHT22;3555;53.248;10.336;2024-03-08T02:47:51;2.60;99.90
7028;DHT22;3555;53.248;10.336;2024-03-08T02:50:18;2.60;99.90
7028;DHT22;3555;53.248;10.336;2024-03-08T02:52:44;2.70;99.90
7028;DHT22;3555;53.248;10.336;2024-03-08T02:55:14;2.70;99.90
7028;DHT22;3555;53.248;10.336;2024-03-08T02:57:41;2.70;99.90
7028;DHT22;3555;53.248;10.336;2024-03-08T03:00:09;2.70;99.90
7028;DHT22;3555;53.248;10.336;2024-03-08T03:02:36;2.80;99.90
7028;DHT22;3555;53.248;10.336;2024-03-08T03:05:04;2.80;99.90
7028;DHT22;3555;53.248;10.336;2024-03-08T03:07:32;2.80;99.90
7028;DHT22;3555;53.248;10.336;2024-03-08T03:09:59;2.80;99.90
7028;DHT22;3555;53.248;10.336;2024-03-08T03:12:28;2.80;99.90
7028;DHT22;3555;53.248;10.336;2024-03-08T03:14:55;2.80;99.90
7028;DHT22;3555;53.248;10.336;2024-03-08T03:17:22;2.70;99.90
7028;DHT22;3555;53.248;10.336;2024-03-08T03:19:50;2.70;99.90
7028;DHT22;3555;53.248;10.336;2024-03-08T03:22:17;2.70;99.90
7028;DHT22;3555;53.248;10.336;2024-03-08T03:24:44;2.70;99.90
7028;DHT22;3555;53.248;10.336;2024-03-08T03:27:11;2.70;99.90
7028;DHT22;3555;53.248;10.336;2024-03-08T03:29:40;2.70;99.90
7028;DHT22;3555;53.248;10.336;2024-03-08T03:32:11;2.60;99.90
7028;DHT22;3555;53.248;10.336;2024-03-08T03:34:37;2.60;99.90
7028;DHT22;3555;53.248;10.336;2024-03-08T03:37:05;2.60;99.90
7028;DHT22;3555;53.248;10.336;2024-03-08T03:39:32;2.60;99.90
7028;DHT22;3555;53.248;10.336;2024-03-08T03:42:00;2.60;99.90
7028;DHT22;3555;53.248;10.336;2024-03-08T03:44:27;2.60;99.90
7028;DHT22;3555;53.248;10.336;2024-03-08T03:46:55;2.60;99.90
7028;DHT22;3555;53.248;10.336;2024-03-08T03:49:22;2.50;99.90
7028;DHT22;3555;53.248;10.336;2024-03-08T03:51:49;2.30;99.90
7028;DHT22;3555;53.248;10.336;2024-03-08T03:54:16;2.40;99.90
7028;DHT22;3555;53.248;10.336;2024-03-08T03:56:43;2.40;99.90
7028;DHT22;3555;53.248;10.336;2024-03-08T03:59:10;2.30;99.90
7028;DHT22;3555;53.248;10.336;2024-03-08T04:01:42;2.30;99.90
7028;DHT22;3555;53.248;10.336;2024-03-08T04:04:10;2.40;99.90
7028;DHT22;3555;53.248;10.336;2024-03-08T04:06:37;2.30;99.90
7028;DHT22;3555;53.248;10.336;2024-03-08T04:09:04;2.30;99.90
7028;DHT22;3555;53.248;10.336;2024-03-08T04:11:31;2.40;99.90
7028;DHT22;3555;53.248;10.336;2024-03-08T04:13:58;2.30;99.90
7028;DHT22;3555;53.248;10.336;2024-03-08T04:16:25;2.30;99.90
7028;DHT22;3555;53.248;10.336;2024-03-08T04:18:52;2.30;99.90
7028;DHT22;3555;53.248;10.336;2024-03-08T04:21:19;2.30;99.90
7028;DHT22;3555;53.248;10.336;2024-03-08T04:23:46;2.30;99.90
7028;DHT22;3555;53.248;10.336;2024-03-08T04:26:13;2.30;99.90
7028;DHT22;3555;53.248;10.336;2024-03-08T04:28:40;2.30;99.90
7028;DHT22;3555;53.248;10.336;2024-03-08T04:31:07;2.30;99.90
7028;DHT22;3555;53.248;10.336;2024-03-08T04:33:34;2.30;99.90
7028;DHT22;3555;53.248;10.336;2024-03-08T04:36:01;2.20;99.90
7028;DHT22;3555;53.248;10.336;2024-03-08T04:38:31;2.20;99.90
7028;DHT22;3555;53.248;10.336;2024-03-08T04:40:58;2.10;99.90
7028;DHT22;3555;53.248;10.336;2024-03-08T04:43:28;2.20;99.90
7028;DHT22;3555;53.248;10.336;2024-03-08T04:45:55;2.10;99.90
7028;DHT22;3555;53.248;10.336;2024-03-08T04:48:22;2.10;99.90
7028;DHT22;3555;53.248;10.336;2024-03-08T04:50:52;2.00;99.90
7028;DHT22;3555;53.248;10.336;2024-03-08T04:53:19;1.90;99.90
7028;DHT22;3555;53.248;10.336;2024-03-08T04:55:48;1.90;99.90
7028;DHT22;3555;53.248;10.336;2024-03-08T04:58:14;1.90;99.90
7028;DHT22;3555;53.248;10.336;2024-03-08T05:00:42;1.80;99.90
7028;DHT22;3555;53.248;10.336;2024-03-08T05:03:08;1.50;99.90
7028;DHT22;3555;53.248;10.336;2024-03-08T05:05:35;1.30;99.90
7028;DHT22;3555;53.248;10.336;2024-03-08T05:08:02;1.10;99.90
7028;DHT22;3555;53.248;10.336;2024-03-08T05:10:30;1.00;99.90
7028;DHT22;3555;53.248;10.336;2024-03-08T05:12:59;0.90;99.90
7028;DHT22;3555;53.248;10.336;2024-03-08T05:15:26;0.90;99.90
7028;DHT22;3555;53.248;10.336;2024-03-08T05:17:53;0.90;99.90
7028;DHT22;3555;53.248;10.336;2024-03-08T05:20:21;0.80;99.90
7028;DHT22;3555;53.248;10.336;2024-03-08T05:22:48;0.70;99.90
7028;DHT22;3555;53.248;10.336;2024-03-08T05:25:15;0.80;99.90
7028;DHT22;3555;53.248;10.336;2024-03-08T05:27:43;0.80;99.90
7028;DHT22;3555;53.248;10.336;2024-03-08T05:30:11;0.80;99.90
7028;DHT22;3555;53.248;10.336;2024-03-08T05:32:40;0.60;99.90
7028;DHT22;3555;53.248;10.336;2024-03-08T05:35:10;0.70;99.90
7028;DHT22;3555;53.248;10.336;2024-03-08T05:37:37;0.60;99.90
7028;DHT22;3555;53.248;10.336;2024-03-08T05:40:05;0.70;99.90
7028;DHT22;3555;53.248;10.336;2024-03-08T05:42:35;0.80;99.90
7028;DHT22;3555;53.248;10.336;2024-03-08T05:45:03;0.70;99.90
7028;DHT22;3555;53.248;10.336;2024-03-08T05:47:31;0.70;99.90
7028;DHT22;3555;53.248;10.336;2024-03-08T05:49:58;0.80;99.90
7028;DHT22;3555;53.248;10.336;2024-03-08T05:52:25;0.80;99.90
7028;DHT22;3555;53.248;10.336;2024-03-08T05:54:52;0.90;99.90
7028;DHT22;3555;53.248;10.336;2024-03-08T05:57:19;0.90;99.90
7028;DHT22;3555;53.248;10.336;2024-03-08T05:59:48;0.70;99.90
7028;DHT22;3555;53.248;10.336;2024-03-08T06:02:14;0.70;99.90
7028;DHT22;3555;53.248;10.336;2024-03-08T06:04:46;0.60;99.90
7028;DHT22;3555;53.248;10.336;2024-03-08T06:07:13;0.60;99.90
7028;DHT22;3555;53.248;10.336;2024-03-08T06:09:40;0.60;99.90
7028;DHT22;3555;53.248;10.336;2024-03-08T06:12:10;0.70;99.90
7028;DHT22;3555;53.248;10.336;2024-03-08T06:14:37;0.70;99.90
7028;DHT22;3555;53.248;10.336;2024-03-08T06:17:04;0.60;99.90
7028;DHT22;3555;53.248;10.336;2024-03-08T06:19:32;0.50;99.90
7028;DHT22;3555;53.248;10.336;2024-03-08T06:22:00;0.60;99.90
7028;DHT22;3555;53.248;10.336;2024-03-08T06:24:31;0.60;99.90
7028;DHT22;3555;53.248;10.336;2024-03-08T06:26:58;0.60;99.90
7028;DHT22;3555;53.248;10.336;2024-03-08T06:29:24;0.60;99.90
7028;DHT22;3555;53.248;10.336;2024-03-08T06:31:51;0.50;99.90
7028;DHT22;3555;53.248;10.336;2024-03-08T06:34:19;0.40;99.90
7028;DHT22;3555;53.248;10.336;2024-03-08T06:36:45;0.40;99.90
7028;DHT22;3555;53.248;10.336;2024-03-08T06:39:14;0.40;99.90
7028;DHT22;3555;53.248;10.336;2024-03-08T06:41:40;0.30;99.90
7028;DHT22;3555;53.248;10.336;2024-03-08T06:44:10;0.40;99.90
7028;DHT22;3555;53.248;10.336;2024-03-08T06:46:36;0.40;99.90
7028;DHT22;3555;53.248;10.336;2024-03-08T06:49:04;0.50;99.90
7028;DHT22;3555;53.248;10.336;2024-03-08T06:51:32;0.60;99.90
7028;DHT22;3555;53.248;10.336;2024-03-08T06:53:59;0.60;99.90
7028;DHT22;3555;53.248;10.336;2024-03-08T06:56:27;0.70;99.90
7028;DHT22;3555;53.248;10.336;2024-03-08T06:58:55;0.80;99.90
7028;DHT22;3555;53.248;10.336;2024-03-08T07:01:22;1.00;99.90
7028;DHT22;3555;53.248;10.336;2024-03-08T07:03:49;1.10;99.90
7028;DHT22;3555;53.248;10.336;2024-03-08T07:06:18;1.30;99.90
7028;DHT22;3555;53.248;10.336;2024-03-08T07:08:45;1.50;99.90
7028;DHT22;3555;53.248;10.336;2024-03-08T07:11:12;1.70;99.90
7028;DHT22;3555;53.248;10.336;2024-03-08T07:13:42;1.90;99.90
7028;DHT22;3555;53.248;10.336;2024-03-08T07:16:09;2.00;99.90
7028;DHT22;3555;53.248;10.336;2024-03-08T07:18:36;2.20;99.90
7028;DHT22;3555;53.248;10.336;2024-03-08T07:21:05;2.40;99.90
7028;DHT22;3555;53.248;10.336;2024-03-08T07:23:32;2.60;99.90
7028;DHT22;3555;53.248;10.336;2024-03-08T07:26:28;2.70;99.90
7028;DHT22;3555;53.248;10.336;2024-03-08T07:28:57;2.90;99.90
7028;DHT22;3555;53.248;10.336;2024-03-08T07:31:26;3.00;99.90
7028;DHT22;3555;53.248;10.336;2024-03-08T07:34:03;3.00;99.90
7028;DHT22;3555;53.248;10.336;2024-03-08T07:36:33;3.30;99.90
7028;DHT22;3555;53.248;10.336;2024-03-08T07:39:00;3.70;99.90
7028;DHT22;3555;53.248;10.336;2024-03-08T07:41:27;3.80;99.90
7028;DHT22;3555;53.248;10.336;2024-03-08T07:43:54;4.10;99.90
7028;DHT22;3555;53.248;10.336;2024-03-08T07:46:22;4.30;99.90
7028;DHT22;3555;53.248;10.336;2024-03-08T07:48:49;4.40;99.90
7028;DHT22;3555;53.248;10.336;2024-03-08T07:51:17;4.70;99.90
7028;DHT22;3555;53.248;10.336;2024-03-08T07:53:44;4.90;99.90
7028;DHT22;3555;53.248;10.336;2024-03-08T07:56:11;5.10;99.90
7028;DHT22;3555;53.248;10.336;2024-03-08T07:58:39;5.20;99.90
7028;DHT22;3555;53.248;10.336;2024-03-08T08:01:07;5.20;99.90
7028;DHT22;3555;53.248;10.336;2024-03-08T08:03:35;5.40;99.90
7028;DHT22;3555;53.248;10.336;2024-03-08T08:06:04;5.60;99.90
7028;DHT22;3555;53.248;10.336;2024-03-08T08:08:31;5.60;99.90
7028;DHT22;3555;53.248;10.336;2024-03-08T08:10:59;5.60;99.90
7028;DHT22;3555;53.248;10.336;2024-03-08T08:13:26;5.60;99.90
7028;DHT22;3555;53.248;10.336;2024-03-08T08:15:57;5.80;99.90
7028;DHT22;3555;53.248;10.336;2024-03-08T08:18:24;5.90;99.90
7028;DHT22;3555;53.248;10.336;2024-03-08T08:20:52;6.00;99.90
7028;DHT22;3555;53.248;10.336;2024-03-08T08:23:19;6.10;99.90
7028;DHT22;3555;53.248;10.336;2024-03-08T08:25:46;6.20;99.90
7028;DHT22;3555;53.248;10.336;2024-03-08T08:28:15;6.40;99.90
7028;DHT22;3555;53.248;10.336;2024-03-08T08:30:43;6.40;99.90
7028;DHT22;3555;53.248;10.336;2024-03-08T08:33:10;6.40;99.90
7028;DHT22;3555;53.248;10.336;2024-03-08T08:35:37;6.40;99.90
7028;DHT22;3555;53.248;10.336;2024-03-08T08:38:05;6.40;99.90
7028;DHT22;3555;53.248;10.336;2024-03-08T08:40:33;6.30;99.90
7028;DHT22;3555;53.248;10.336;2024-03-08T08:43:01;6.30;99.90
7028;DHT22;3555;53.248;10.336;2024-03-08T08:45:30;6.30;99.90
7028;DHT22;3555;53.248;10.336;2024-03-08T08:47:57;6.20;99.90
7028;DHT22;3555;53.248;10.336;2024-03-08T08:50:25;6.20;99.90
7028;DHT22;3555;53.248;10.336;2024-03-08T08:52:52;6.10;99.90
7028;DHT22;3555;53.248;10.336;2024-03-08T08:55:21;6.10;99.90
7028;DHT22;3555;53.248;10.336;2024-03-08T08:57:51;6.20;99.90
7028;DHT22;3555;53.248;10.336;2024-03-08T09:00:19;6.40;99.90
7028;DHT22;3555;53.248;10.336;2024-03-08T09:02:46;6.40;99.90
7028;DHT22;3555;53.248;10.336;2024-03-08T09:05:13;6.50;99.90
7028;DHT22;3555;53.248;10.336;2024-03-08T09:07:42;6.70;99.90
7028;DHT22;3555;53.248;10.336;2024-03-08T09:10:11;6.60;99.90
7028;DHT22;3555;53.248;10.336;2024-03-08T09:12:41;6.70;99.90
7028;DHT22;3555;53.248;10.336;2024-03-08T09:15:08;6.70;99.90
7028;DHT22;3555;53.248;10.336;2024-03-08T09:17:36;6.80;99.90
7028;DHT22;3555;53.248;10.336;2024-03-08T09:20:06;7.10;99.90
7028;DHT22;3555;53.248;10.336;2024-03-08T09:22:33;7.10;99.90
7028;DHT22;3555;53.248;10.336;2024-03-08T09:25:00;7.00;99.90
7028;DHT22;3555;53.248;10.336;2024-03-08T09:27:27;7.20;99.90
7028;DHT22;3555;53.248;10.336;2024-03-08T09:29:55;7.20;99.90
7028;DHT22;3555;53.248;10.336;2024-03-08T09:32:22;7.20;99.90
7028;DHT22;3555;53.248;10.336;2024-03-08T09:34:49;7.30;99.90
7028;DHT22;3555;53.248;10.336;2024-03-08T09:37:16;7.20;99.90
7028;DHT22;3555;53.248;10.336;2024-03-08T09:39:44;7.10;99.90
7028;DHT22;3555;53.248;10.336;2024-03-08T09:42:11;7.30;99.90
7028;DHT22;3555;53.248;10.336;2024-03-08T09:44:43;7.50;99.90
7028;DHT22;3555;53.248;10.336;2024-03-08T09:47:12;7.50;99.90
7028;DHT22;3555;53.248;10.336;2024-03-08T09:49:40;7.70;99.90
7028;DHT22;3555;53.248;10.336;2024-03-08T09:52:07;7.80;99.90
7028;DHT22;3555;53.248;10.336;2024-03-08T09:54:35;7.80;99.90
7028;DHT22;3555;53.248;10.336;2024-03-08T09:57:04;8.00;99.90
7028;DHT22;3555;53.248;10.336;2024-03-08T09:59:31;8.10;99.90
7028;DHT22;3555;53.248;10.336;2024-03-08T10:02:16;8.00;99.90
7028;DHT22;3555;53.248;10.336;2024-03-08T10:04:44;7.70;99.90
7028;DHT22;3555;53.248;10.336;2024-03-08T10:07:13;7.70;99.90
7028;DHT22;3555;53.248;10.336;2024-03-08T10:09:40;7.80;99.90
7028;DHT22;3555;53.248;10.336;2024-03-08T10:12:08;7.70;99.90
7028;DHT22;3555;53.248;10.336;2024-03-08T10:14:39;7.60;99.90
7028;DHT22;3555;53.248;10.336;2024-03-08T10:17:06;7.50;99.90
7028;DHT22;3555;53.248;10.336;2024-03-08T10:19:35;7.50;99.90
7028;DHT22;3555;53.248;10.336;2024-03-08T10:22:02;7.40;99.90
7028;DHT22;3555;53.248;10.336;2024-03-08T10:24:30;7.30;99.90
7028;DHT22;3555;53.248;10.336;2024-03-08T10:26:59;7.30;99.90
7028;DHT22;3555;53.248;10.336;2024-03-08T10:29:26;7.60;99.90
7028;DHT22;3555;53.248;10.336;2024-03-08T10:31:54;7.80;99.90
7028;DHT22;3555;53.248;10.336;2024-03-08T10:34:22;8.00;99.90
7028;DHT22;3555;53.248;10.336;2024-03-08T10:36:52;7.90;99.90
7028;DHT22;3555;53.248;10.336;2024-03-08T10:39:23;7.90;99.90
7028;DHT22;3555;53.248;10.336;2024-03-08T10:41:53;8.00;99.90
7028;DHT22;3555;53.248;10.336;2024-03-08T10:44:36;8.00;99.90
7028;DHT22;3555;53.248;10.336;2024-03-08T10:47:12;7.70;99.90
7028;DHT22;3555;53.248;10.336;2024-03-08T10:49:51;7.50;99.90
7028;DHT22;3555;53.248;10.336;2024-03-08T10:52:22;7.70;99.90
7028;DHT22;3555;53.248;10.336;2024-03-08T10:54:49;7.70;99.90
7028;DHT22;3555;53.248;10.336;2024-03-08T10:57:18;7.90;99.90
7028;DHT22;3555;53.248;10.336;2024-03-08T10:59:47;7.70;99.90
7028;DHT22;3555;53.248;10.336;2024-03-08T11:02:16;7.70;99.90
7028;DHT22;3555;53.248;10.336;2024-03-08T11:04:46;7.70;99.90
7028;DHT22;3555;53.248;10.336;2024-03-08T11:07:14;7.80;99.90
7028;DHT22;3555;53.248;10.336;2024-03-08T11:09:47;7.80;99.90
7028;DHT22;3555;53.248;10.336;2024-03-08T11:12:22;7.80;99.90
7028;DHT22;3555;53.248;10.336;2024-03-08T11:14:51;7.70;99.90
7028;DHT22;3555;53.248;10.336;2024-03-08T11:17:26;7.40;99.90
7028;DHT22;3555;53.248;10.336;2024-03-08T11:19:55;7.40;99.90
7028;DHT22;3555;53.248;10.336;2024-03-08T11:22:24;7.50;99.90
7028;DHT22;3555;53.248;10.336;2024-03-08T11:24:58;7.60;99.90
7028;DHT22;3555;53.248;10.336;2024-03-08T11:27:29;7.80;99.90
7028;DHT22;3555;53.248;10.336;2024-03-08T11:30:00;7.80;99.90
7028;DHT22;3555;53.248;10.336;2024-03-08T11:32:35;8.00;99.90
7028;DHT22;3555;53.248;10.336;2024-03-08T11:35:06;7.80;99.90
7028;DHT22;3555;53.248;10.336;2024-03-08T11:37:34;7.70;99.90
7028;DHT22;3555;53.248;10.336;2024-03-08T11:40:12;7.70;99.90
7028;DHT22;3555;53.248;10.336;2024-03-08T11:42:44;7.90;99.90
7028;DHT22;3555;53.248;10.336;2024-03-08T11:45:12;8.00;99.90
7028;DHT22;3555;53.248;10.336;2024-03-08T11:47:41;8.10;99.90
7028;DHT22;3555;53.248;10.336;2024-03-08T11:50:11;8.20;99.90
7028;DHT22;3555;53.248;10.336;2024-03-08T11:52:38;8.10;99.90
7028;DHT22;3555;53.248;10.336;2024-03-08T11:55:07;8.20;99.90
7028;DHT22;3555;53.248;10.336;2024-03-08T11:57:34;8.10;99.90
7028;DHT22;3555;53.248;10.336;2024-03-08T12:00:01;8.00;99.90
7028;DHT22;3555;53.248;10.336;2024-03-08T12:02:32;8.00;99.90
7028;DHT22;3555;53.248;10.336;2024-03-08T12:05:01;8.10;99.90
7028;DHT22;3555;53.248;10.336;2024-03-08T12:07:29;8.20;99.90
7028;DHT22;3555;53.248;10.336;2024-03-08T12:10:18;8.10;99.90
7028;DHT22;3555;53.248;10.336;2024-03-08T12:12:47;8.10;99.90
7028;DHT22;3555;53.248;10.336;2024-03-08T12:15:15;8.10;99.90
7028;DHT22;3555;53.248;10.336;2024-03-08T12:17:43;8.00;99.90
7028;DHT22;3555;53.248;10.336;2024-03-08T12:20:15;8.10;99.90
7028;DHT22;3555;53.248;10.336;2024-03-08T12:22:42;8.00;99.90
7028;DHT22;3555;53.248;10.336;2024-03-08T12:25:11;8.00;99.90
7028;DHT22;3555;53.248;10.336;2024-03-08T12:27:40;8.00;99.90
7028;DHT22;3555;53.248;10.336;2024-03-08T12:30:19;8.10;99.90
7028;DHT22;3555;53.248;10.336;2024-03-08T12:32:48;8.10;99.90
7028;DHT22;3555;53.248;10.336;2024-03-08T12:35:17;8.10;99.90
7028;DHT22;3555;53.248;10.336;2024-03-08T12:37:44;8.10;99.90
7028;DHT22;3555;53.248;10.336;2024-03-08T12:40:11;8.00;99.90
7028;DHT22;3555;53.248;10.336;2024-03-08T12:42:43;8.10;99.90
7028;DHT22;3555;53.248;10.336;2024-03-08T12:45:13;8.10;99.90
7028;DHT22;3555;53.248;10.336;2024-03-08T12:47:40;8.20;99.90
7028;DHT22;3555;53.248;10.336;2024-03-08T12:50:09;8.20;99.90
7028;DHT22;3555;53.248;10.336;2024-03-08T12:52:36;8.20;99.90
7028;DHT22;3555;53.248;10.336;2024-03-08T12:55:04;8.00;99.90
7028;DHT22;3555;53.248;10.336;2024-03-08T12:57:33;8.10;99.90
7028;DHT22;3555;53.248;10.336;2024-03-08T13:00:03;8.10;99.90
7028;DHT22;3555;53.248;10.336;2024-03-08T13:02:31;8.20;99.90
7028;DHT22;3555;53.248;10.336;2024-03-08T13:04:58;8.40;99.90
7028;DHT22;3555;53.248;10.336;2024-03-08T13:07:26;8.40;99.90
7028;DHT22;3555;53.248;10.336;2024-03-08T13:09:53;8.30;99.90
7028;DHT22;3555;53.248;10.336;2024-03-08T13:12:21;8.20;99.90
7028;DHT22;3555;53.248;10.336;2024-03-08T13:14:49;8.10;99.90
7028;DHT22;3555;53.248;10.336;2024-03-08T13:17:17;8.10;99.90
7028;DHT22;3555;53.248;10.336;2024-03-08T13:19:44;8.10;99.90
7028;DHT22;3555;53.248;10.336;2024-03-08T13:22:11;8.20;99.90
7028;DHT22;3555;53.248;10.336;2024-03-08T13:24:39;8.20;99.90
7028;DHT22;3555;53.248;10.336;2024-03-08T13:27:07;8.20;99.90
7028;DHT22;3555;53.248;10.336;2024-03-08T13:29:47;8.20;99.90
7028;DHT22;3555;53.248;10.336;2024-03-08T13:32:16;8.30;99.90
7028;DHT22;3555;53.248;10.336;2024-03-08T13:34:46;8.30;99.90
7028;DHT22;3555;53.248;10.336;2024-03-08T13:37:16;8.20;99.90
7028;DHT22;3555;53.248;10.336;2024-03-08T13:39:43;8.20;99.90
7028;DHT22;3555;53.248;10.336;2024-03-08T13:42:11;8.10;99.90
7028;DHT22;3555;53.248;10.336;2024-03-08T13:44:43;8.10;99.90
7028;DHT22;3555;53.248;10.336;2024-03-08T13:47:11;8.10;99.90
7028;DHT22;3555;53.248;10.336;2024-03-08T13:49:40;8.00;99.90
7028;DHT22;3555;53.248;10.336;2024-03-08T13:52:09;8.10;99.90
7028;DHT22;3555;53.248;10.336;2024-03-08T13:54:36;8.10;99.90
7028;DHT22;3555;53.248;10.336;2024-03-08T13:57:04;8.00;99.90
7028;DHT22;3555;53.248;10.336;2024-03-08T13:59:32;7.90;99.90
7028;DHT22;3555;53.248;10.336;2024-03-08T14:02:00;7.90;99.90
7028;DHT22;3555;53.248;10.336;2024-03-08T14:04:28;7.90;99.90
7028;DHT22;3555;53.248;10.336;2024-03-08T14:06:56;7.90;99.90
7028;DHT22;3555;53.248;10.336;2024-03-08T14:09:28;8.00;99.90
7028;DHT22;3555;53.248;10.336;2024-03-08T14:11:55;8.10;99.90
7028;DHT22;3555;53.248;10.336;2024-03-08T14:14:22;8.20;99.90
7028;DHT22;3555;53.248;10.336;2024-03-08T14:16:49;8.10;99.90
7028;DHT22;3555;53.248;10.336;2024-03-08T14:19:18;8.10;99.90
7028;DHT22;3555;53.248;10.336;2024-03-08T14:21:45;8.10;99.90
7028;DHT22;3555;53.248;10.336;2024-03-08T14:24:15;8.00;99.90
7028;DHT22;3555;53.248;10.336;2024-03-08T14:26:42;8.00;99.90
7028;DHT22;3555;53.248;10.336;2024-03-08T14:29:09;8.00;99.90
7028;DHT22;3555;53.248;10.336;2024-03-08T14:31:36;8.10;99.90
7028;DHT22;3555;53.248;10.336;2024-03-08T14:34:03;8.10;99.90
7028;DHT22;3555;53.248;10.336;2024-03-08T14:36:30;8.20;99.90
7028;DHT22;3555;53.248;10.336;2024-03-08T14:38:57;8.10;99.90
7028;DHT22;3555;53.248;10.336;2024-03-08T14:41:26;8.10;99.90
7028;DHT22;3555;53.248;10.336;2024-03-08T14:43:53;8.20;99.90
7028;DHT22;3555;53.248;10.336;2024-03-08T14:46:19;8.20;99.90
7028;DHT22;3555;53.248;10.336;2024-03-08T14:48:48;8.20;99.90
7028;DHT22;3555;53.248;10.336;2024-03-08T14:51:17;8.10;99.90
7028;DHT22;3555;53.248;10.336;2024-03-08T14:53:46;8.00;99.90
7028;DHT22;3555;53.248;10.336;2024-03-08T14:56:14;8.00;99.90
7028;DHT22;3555;53.248;10.336;2024-03-08T14:58:43;8.10;99.90
7028;DHT22;3555;53.248;10.336;2024-03-08T15:01:10;8.10;99.90
7028;DHT22;3555;53.248;10.336;2024-03-08T15:03:39;8.10;99.90
7028;DHT22;3555;53.248;10.336;2024-03-08T15:06:06;8.20;99.90
7028;DHT22;3555;53.248;10.336;2024-03-08T15:08:35;8.10;99.90
7028;DHT22;3555;53.248;10.336;2024-03-08T15:11:02;8.20;99.90
7028;DHT22;3555;53.248;10.336;2024-03-08T15:13:29;8.10;99.90
7028;DHT22;3555;53.248;10.336;2024-03-08T15:16:06;8.10;99.90
7028;DHT22;3555;53.248;10.336;2024-03-08T15:18:34;8.10;99.90
7028;DHT22;3555;53.248;10.336;2024-03-08T15:21:05;8.10;99.90
7028;DHT22;3555;53.248;10.336;2024-03-08T15:23:34;8.10;99.90
7028;DHT22;3555;53.248;10.336;2024-03-08T15:26:01;8.00;99.90
7028;DHT22;3555;53.248;10.336;2024-03-08T15:28:29;8.00;99.90
7028;DHT22;3555;53.248;10.336;2024-03-08T15:31:03;8.10;99.90
7028;DHT22;3555;53.248;10.336;2024-03-08T15:33:34;8.00;99.90
7028;DHT22;3555;53.248;10.336;2024-03-08T15:36:07;8.10;99.90
7028;DHT22;3555;53.248;10.336;2024-03-08T15:38:35;8.10;99.90
7028;DHT22;3555;53.248;10.336;2024-03-08T15:41:02;8.20;99.90
7028;DHT22;3555;53.248;10.336;2024-03-08T15:43:32;8.10;99.90
7028;DHT22;3555;53.248;10.336;2024-03-08T15:46:00;8.00;99.90
7028;DHT22;3555;53.248;10.336;2024-03-08T15:48:30;8.00;99.90
7028;DHT22;3555;53.248;10.336;2024-03-08T15:50:59;8.00;99.90
7028;DHT22;3555;53.248;10.336;2024-03-08T15:53:31;7.90;99.90
7028;DHT22;3555;53.248;10.336;2024-03-08T15:55:57;7.90;99.90
7028;DHT22;3555;53.248;10.336;2024-03-08T15:58:25;7.80;99.90
7028;DHT22;3555;53.248;10.336;2024-03-08T16:00:52;7.70;99.90
7028;DHT22;3555;53.248;10.336;2024-03-08T16:03:19;7.70;99.90
7028;DHT22;3555;53.248;10.336;2024-03-08T16:05:46;7.70;99.90
7028;DHT22;3555;53.248;10.336;2024-03-08T16:08:16;7.80;99.90